Dr. Hank Kaplan — WDJ3839 — position and weather

sailwx.info

Track history (hours):
 
Tides and Currents Weather Stations Pressure Air Temp Water Temp Dewpoint Dewpoint Depression Visibility Wind Speed Wind Dir Waves Ship Positions

Dr. Hank Kaplan

Owner: Harley Marine Services, Inc., Seattle, WA. More information available from US FCC via Universal Licensing System and Coast Guard Vessel Documentation Center.

Last reported at 2018-Jan-19 19:30 UTC. Time now 2018-Jan-19 19:33 UTC.
Position N 47°33' W 122°27'.

Length 24 m; draft 5.1 m.

Type: Tug. MMSI: 367719100.

Date/timePositionNaut miles runAvg speedWind from/ knotsBaromVisibWave heightAir tempDewpointWater temp
2018-Jan-19 19:30N 47°33' W 122°27'5 9.4
2018-Jan-19 19:01N 47°36' W 122°21'1 1.2
2018-Jan-19 18:30N 47°35' W 122°21'2 3.1
2018-Jan-19 18:01N 47°36' W 122°21'0 0.3
2018-Jan-19 17:31N 47°37' W 122°21'2 4.3
2018-Jan-19 17:00N 47°34' W 122°21'0 0.0
2018-Jan-19 16:23N 47°34' W 122°21'0 0.0
2018-Jan-19 15:56N 47°34' W 122°21'0 0.0
2018-Jan-19 15:26N 47°34' W 122°21'0 0.0
2018-Jan-19 14:50N 47°34' W 122°21'0 0.0
2018-Jan-19 14:26N 47°34' W 122°21'0 0.0
2018-Jan-19 13:59N 47°34' W 122°21'0 0.0
2018-Jan-19 13:29N 47°34' W 122°21'0 0.0
2018-Jan-19 12:47N 47°34' W 122°21'0 0.0
2018-Jan-19 12:29N 47°34' W 122°21'0 0.0
2018-Jan-19 11:59N 47°34' W 122°21'0 0.0
2018-Jan-19 11:20N 47°34' W 122°21'0 0.0
2018-Jan-19 10:44N 47°34' W 122°21'0 0.0
2018-Jan-19 10:23N 47°34' W 122°21'0 0.0
2018-Jan-19 09:59N 47°34' W 122°21'0 0.0
2018-Jan-19 09:29N 47°34' W 122°21'0 0.0
2018-Jan-19 08:59N 47°34' W 122°21'0 0.0
2018-Jan-19 08:11N 47°34' W 122°21'0 0.0
2018-Jan-19 07:59N 47°34' W 122°21'0 0.0
2018-Jan-19 07:29N 47°34' W 122°21'1 2.0
2018-Jan-19 07:00N 47°35' W 122°21'4 7.8
2018-Jan-19 06:30N 47°34' W 122°26'1 2.2
2018-Jan-19 06:01N 47°33' W 122°27'611.1
2018-Jan-19 05:30N 47°38' W 122°28'510.4
2018-Jan-19 05:00N 47°43' W 122°27'510.6
2018-Jan-19 04:30N 47°49' W 122°28'510.9
2018-Jan-19 04:00N 47°54' W 122°30'5 9.5
2018-Jan-19 03:29N 47°57' W 122°35'21 9.8
2018-Jan-19 01:20N 48°16' W 122°48'411.7
2018-Jan-19 00:59N 48°20' W 122°47'511.3
2018-Jan-19 00:30N 48°25' W 122°45'510.6
2018-Jan-19 00:00N 48°31' W 122°43'5 9.7
2018-Jan-18 23:30N 48°31' W 122°35'1 2.0
2018-Jan-18 23:00N 48°31' W 122°35'0 0.5
2018-Jan-18 22:30N 48°31' W 122°35'1 2.1
2018-Jan-18 22:00N 48°31' W 122°36'0 0.0
2018-Jan-18 21:30N 48°31' W 122°36'0 0.0
2018-Jan-18 20:54N 48°31' W 122°36'0 0.0
2018-Jan-18 20:30N 48°31' W 122°36'0 0.0
2018-Jan-18 20:00N 48°31' W 122°36'0 0.0
2018-Jan-18 19:30N 48°31' W 122°36'0 0.0
2018-Jan-18 18:58N 48°31' W 122°36'0 0.0
2018-Jan-18 18:30N 48°31' W 122°36'0 0.0
2018-Jan-18 18:00N 48°31' W 122°36'0 0.0
2018-Jan-18 17:30N 48°31' W 122°36'2 3.5
2018-Jan-18 17:00N 48°30' W 122°34'2 3.3
2018-Jan-18 16:30N 48°31' W 122°36'0 0.0
2018-Jan-18 16:00N 48°31' W 122°36'0 0.0
2018-Jan-18 15:30N 48°31' W 122°36'0 0.0
2018-Jan-18 15:00N 48°31' W 122°36'0 0.0
2018-Jan-18 14:30N 48°31' W 122°36'0 0.0
2018-Jan-18 14:00N 48°31' W 122°36'0 0.0
2018-Jan-18 13:30N 48°31' W 122°36'0 0.0
2018-Jan-18 13:00N 48°31' W 122°36'0 0.0
2018-Jan-18 12:30N 48°31' W 122°36'0 0.0
2018-Jan-18 11:54N 48°31' W 122°36'0 0.0
2018-Jan-18 11:30N 48°31' W 122°36'0 0.0
2018-Jan-18 11:00N 48°31' W 122°36'1 1.4
2018-Jan-18 10:31N 48°31' W 122°35'4 8.5
2018-Jan-18 10:00N 48°36' W 122°34'1 1.6
2018-Jan-18 09:30N 48°36' W 122°34'0 0.9
2018-Jan-18 09:00N 48°37' W 122°35'3 7.0
2018-Jan-18 08:30N 48°33' W 122°34'2 4.2
2018-Jan-18 07:59N 48°31' W 122°36'0 0.0
2018-Jan-18 07:29N 48°31' W 122°36'0 0.0
2018-Jan-18 06:59N 48°31' W 122°36'0 0.0
2018-Jan-18 06:29N 48°31' W 122°36'2 3.5
2018-Jan-18 06:00N 48°30' W 122°34'1 1.4
2018-Jan-18 05:30N 48°31' W 122°35'2 3.6
2018-Jan-18 05:00N 48°31' W 122°37'1 2.3
2018-Jan-18 04:30N 48°31' W 122°39'2 3.4
2018-Jan-18 04:00N 48°31' W 122°42'2 3.9
2018-Jan-18 03:31N 48°30' W 122°44'4 8.2
2018-Jan-18 03:00N 48°26' W 122°44'2511.5
2018-Jan-18 00:49N 48°01' W 122°37'1012.5
2018-Jan-18 00:00N 47°53' W 122°28'112.7
2018-Jan-17 23:57N 47°52' W 122°28'  
2018-Jan-12 14:59N 47°34' W 122°21'0 0.4
2018-Jan-12 14:29N 47°35' W 122°21'2 3.8
2018-Jan-12 14:00N 47°36' W 122°22'2 3.6
2018-Jan-12 13:30N 47°38' W 122°23'1 2.9
2018-Jan-12 13:00N 47°36' W 122°22'2 3.4
2018-Jan-12 12:30N 47°35' W 122°21'1 1.5
2018-Jan-12 12:00N 47°34' W 122°21'0 0.0
2018-Jan-12 11:30N 47°34' W 122°21'0 0.0
2018-Jan-12 10:57N 47°34' W 122°21'0 0.0
2018-Jan-12 10:30N 47°34' W 122°21'0 0.0
2018-Jan-12 10:00N 47°34' W 122°21'0 0.0
2018-Jan-12 09:30N 47°34' W 122°21'0 0.0
2018-Jan-12 09:00N 47°34' W 122°21'0 0.0
2018-Jan-12 08:30N 47°34' W 122°21'0 0.0
2018-Jan-12 07:57N 47°34' W 122°21'0 0.0
2018-Jan-12 07:09N 47°34' W 122°21'0 0.0
2018-Jan-12 07:00N 47°34' W 122°21'0 0.0
2018-Jan-12 06:30N 47°34' W 122°21'0 0.0
2018-Jan-12 05:24N 47°34' W 122°21'0 0.0
2018-Jan-12 05:00N 47°34' W 122°21'0 0.0
2018-Jan-12 04:30N 47°34' W 122°21'0 0.0
2018-Jan-12 04:00N 47°34' W 122°21'0 0.0
2018-Jan-12 03:18N 47°34' W 122°21'0 0.0
2018-Jan-12 03:00N 47°34' W 122°21'0 0.0
2018-Jan-12 02:30N 47°34' W 122°21'0 0.0
2018-Jan-12 02:00N 47°34' W 122°21'0 0.0
2018-Jan-12 01:30N 47°34' W 122°21'0 0.0
2018-Jan-12 01:00N 47°34' W 122°21'1 2.5
2018-Jan-12 00:31N 47°36' W 122°21'0 0.4
2018-Jan-12 00:00N 47°36' W 122°21'0 0.9
2018-Jan-11 23:31N 47°36' W 122°21'0 0.0
2018-Jan-11 23:00N 47°36' W 122°21'2 3.0
2018-Jan-11 22:28N 47°34' W 122°21'0 0.0
2018-Jan-11 21:58N 47°34' W 122°21'0 0.0
2018-Jan-11 21:28N 47°34' W 122°21'1 1.1
2018-Jan-11 21:00N 47°35' W 122°21'0 0.0
2018-Jan-11 20:30N 47°35' W 122°21'1 2.1
2018-Jan-11 20:00N 47°36' W 122°21'1 1.1
2018-Jan-11 19:30N 47°36' W 122°21'1 1.5
2018-Jan-11 19:00N 47°37' W 122°22'1 1.2
2018-Jan-11 18:30N 47°36' W 122°23'4 8.7
2018-Jan-11 18:00N 47°34' W 122°28'510.3
2018-Jan-11 17:30N 47°29' W 122°30'510.4
2018-Jan-11 17:00N 47°24' W 122°32'5 9.7
2018-Jan-11 16:30N 47°19' W 122°30'4 0.1
2018-Jan-10 15:11N 47°17' W 122°25'1 7.4
2018-Jan-10 15:00N 47°16' W 122°24'1 1.4
2018-Jan-10 14:31N 47°16' W 122°23'2 3.0
2018-Jan-10 14:00N 47°17' W 122°25'2 3.6
2018-Jan-10 13:31N 47°18' W 122°27'2 4.2
2018-Jan-10 13:00N 47°17' W 122°25'1 0.1
2018-Jan-09 23:59N 47°17' W 122°25'2 4.4
2018-Jan-09 23:30N 47°16' W 122°23'1 1.1
2018-Jan-09 23:00N 47°16' W 122°24'2 3.8
2018-Jan-09 22:30N 47°17' W 122°26'0 0.6
2018-Jan-09 22:00N 47°18' W 122°26'  
Track history (hours):
 
Tides and Currents Weather Stations Pressure Air Temp Water Temp Dewpoint Dewpoint Depression Visibility Wind Speed Wind Dir Waves Ship Positions

Dr. Hank Kaplan

Owner: Harley Marine Services, Inc., Seattle, WA. More information available from US FCC via Universal Licensing System and Coast Guard Vessel Documentation Center.

Last reported at 2018-Jan-19 19:30 UTC. Time now 2018-Jan-19 19:33 UTC.
Position N 47°33' W 122°27'.

Length 24 m; draft 5.1 m.

Type: Tug. MMSI: 367719100.

Date/timePositionNaut miles runAvg speedWind from/ knotsBaromVisibWave heightAir tempDewpointWater temp
2018-Jan-19 19:30N 47°33' W 122°27'5 9.4
2018-Jan-19 19:01N 47°36' W 122°21'1 1.2
2018-Jan-19 18:30N 47°35' W 122°21'2 3.1
2018-Jan-19 18:01N 47°36' W 122°21'0 0.3
2018-Jan-19 17:31N 47°37' W 122°21'2 4.3
2018-Jan-19 17:00N 47°34' W 122°21'0 0.0
2018-Jan-19 16:23N 47°34' W 122°21'0 0.0
2018-Jan-19 15:56N 47°34' W 122°21'0 0.0
2018-Jan-19 15:26N 47°34' W 122°21'0 0.0
2018-Jan-19 14:50N 47°34' W 122°21'0 0.0
2018-Jan-19 14:26N 47°34' W 122°21'0 0.0
2018-Jan-19 13:59N 47°34' W 122°21'0 0.0
2018-Jan-19 13:29N 47°34' W 122°21'0 0.0
2018-Jan-19 12:47N 47°34' W 122°21'0 0.0
2018-Jan-19 12:29N 47°34' W 122°21'0 0.0
2018-Jan-19 11:59N 47°34' W 122°21'0 0.0
2018-Jan-19 11:20N 47°34' W 122°21'0 0.0
2018-Jan-19 10:44N 47°34' W 122°21'0 0.0
2018-Jan-19 10:23N 47°34' W 122°21'0 0.0
2018-Jan-19 09:59N 47°34' W 122°21'0 0.0
2018-Jan-19 09:29N 47°34' W 122°21'0 0.0
2018-Jan-19 08:59N 47°34' W 122°21'0 0.0
2018-Jan-19 08:11N 47°34' W 122°21'0 0.0
2018-Jan-19 07:59N 47°34' W 122°21'0 0.0
2018-Jan-19 07:29N 47°34' W 122°21'1 2.0
2018-Jan-19 07:00N 47°35' W 122°21'4 7.8
2018-Jan-19 06:30N 47°34' W 122°26'1 2.2
2018-Jan-19 06:01N 47°33' W 122°27'611.1
2018-Jan-19 05:30N 47°38' W 122°28'510.4
2018-Jan-19 05:00N 47°43' W 122°27'510.6
2018-Jan-19 04:30N 47°49' W 122°28'510.9
2018-Jan-19 04:00N 47°54' W 122°30'5 9.5
2018-Jan-19 03:29N 47°57' W 122°35'21 9.8
2018-Jan-19 01:20N 48°16' W 122°48'411.7
2018-Jan-19 00:59N 48°20' W 122°47'511.3
2018-Jan-19 00:30N 48°25' W 122°45'510.6
2018-Jan-19 00:00N 48°31' W 122°43'5 9.7
2018-Jan-18 23:30N 48°31' W 122°35'1 2.0
2018-Jan-18 23:00N 48°31' W 122°35'0 0.5
2018-Jan-18 22:30N 48°31' W 122°35'1 2.1
2018-Jan-18 22:00N 48°31' W 122°36'0 0.0
2018-Jan-18 21:30N 48°31' W 122°36'0 0.0
2018-Jan-18 20:54N 48°31' W 122°36'0 0.0
2018-Jan-18 20:30N 48°31' W 122°36'0 0.0
2018-Jan-18 20:00N 48°31' W 122°36'0 0.0
2018-Jan-18 19:30N 48°31' W 122°36'0 0.0
2018-Jan-18 18:58N 48°31' W 122°36'0 0.0
2018-Jan-18 18:30N 48°31' W 122°36'0 0.0
2018-Jan-18 18:00N 48°31' W 122°36'0 0.0
2018-Jan-18 17:30N 48°31' W 122°36'2 3.5
2018-Jan-18 17:00N 48°30' W 122°34'2 3.3
2018-Jan-18 16:30N 48°31' W 122°36'0 0.0
2018-Jan-18 16:00N 48°31' W 122°36'0 0.0
2018-Jan-18 15:30N 48°31' W 122°36'0 0.0
2018-Jan-18 15:00N 48°31' W 122°36'0 0.0
2018-Jan-18 14:30N 48°31' W 122°36'0 0.0
2018-Jan-18 14:00N 48°31' W 122°36'0 0.0
2018-Jan-18 13:30N 48°31' W 122°36'0 0.0
2018-Jan-18 13:00N 48°31' W 122°36'0 0.0
2018-Jan-18 12:30N 48°31' W 122°36'0 0.0
2018-Jan-18 11:54N 48°31' W 122°36'0 0.0
2018-Jan-18 11:30N 48°31' W 122°36'0 0.0
2018-Jan-18 11:00N 48°31' W 122°36'1 1.4
2018-Jan-18 10:31N 48°31' W 122°35'4 8.5
2018-Jan-18 10:00N 48°36' W 122°34'1 1.6
2018-Jan-18 09:30N 48°36' W 122°34'0 0.9
2018-Jan-18 09:00N 48°37' W 122°35'3 7.0
2018-Jan-18 08:30N 48°33' W 122°34'2 4.2
2018-Jan-18 07:59N 48°31' W 122°36'0 0.0
2018-Jan-18 07:29N 48°31' W 122°36'0 0.0
2018-Jan-18 06:59N 48°31' W 122°36'0 0.0
2018-Jan-18 06:29N 48°31' W 122°36'2 3.5
2018-Jan-18 06:00N 48°30' W 122°34'1 1.4
2018-Jan-18 05:30N 48°31' W 122°35'2 3.6
2018-Jan-18 05:00N 48°31' W 122°37'1 2.3
2018-Jan-18 04:30N 48°31' W 122°39'2 3.4
2018-Jan-18 04:00N 48°31' W 122°42'2 3.9
2018-Jan-18 03:31N 48°30' W 122°44'4 8.2
2018-Jan-18 03:00N 48°26' W 122°44'2511.5
2018-Jan-18 00:49N 48°01' W 122°37'1012.5
2018-Jan-18 00:00N 47°53' W 122°28'112.7
2018-Jan-17 23:57N 47°52' W 122°28'  
2018-Jan-12 14:59N 47°34' W 122°21'0 0.4
2018-Jan-12 14:29N 47°35' W 122°21'2 3.8
2018-Jan-12 14:00N 47°36' W 122°22'2 3.6
2018-Jan-12 13:30N 47°38' W 122°23'1 2.9
2018-Jan-12 13:00N 47°36' W 122°22'2 3.4
2018-Jan-12 12:30N 47°35' W 122°21'1 1.5
2018-Jan-12 12:00N 47°34' W 122°21'0 0.0
2018-Jan-12 11:30N 47°34' W 122°21'0 0.0
2018-Jan-12 10:57N 47°34' W 122°21'0 0.0
2018-Jan-12 10:30N 47°34' W 122°21'0 0.0
2018-Jan-12 10:00N 47°34' W 122°21'0 0.0
2018-Jan-12 09:30N 47°34' W 122°21'0 0.0
2018-Jan-12 09:00N 47°34' W 122°21'0 0.0
2018-Jan-12 08:30N 47°34' W 122°21'0 0.0
2018-Jan-12 07:57N 47°34' W 122°21'0 0.0
2018-Jan-12 07:09N 47°34' W 122°21'0 0.0
2018-Jan-12 07:00N 47°34' W 122°21'0 0.0
2018-Jan-12 06:30N 47°34' W 122°21'0 0.0
2018-Jan-12 05:24N 47°34' W 122°21'0 0.0
2018-Jan-12 05:00N 47°34' W 122°21'0 0.0
2018-Jan-12 04:30N 47°34' W 122°21'0 0.0
2018-Jan-12 04:00N 47°34' W 122°21'0 0.0
2018-Jan-12 03:18N 47°34' W 122°21'0 0.0
2018-Jan-12 03:00N 47°34' W 122°21'0 0.0
2018-Jan-12 02:30N 47°34' W 122°21'0 0.0
2018-Jan-12 02:00N 47°34' W 122°21'0 0.0
2018-Jan-12 01:30N 47°34' W 122°21'0 0.0
2018-Jan-12 01:00N 47°34' W 122°21'1 2.5
2018-Jan-12 00:31N 47°36' W 122°21'0 0.4
2018-Jan-12 00:00N 47°36' W 122°21'0 0.9
2018-Jan-11 23:31N 47°36' W 122°21'0 0.0
2018-Jan-11 23:00N 47°36' W 122°21'2 3.0
2018-Jan-11 22:28N 47°34' W 122°21'0 0.0
2018-Jan-11 21:58N 47°34' W 122°21'0 0.0
2018-Jan-11 21:28N 47°34' W 122°21'1 1.1
2018-Jan-11 21:00N 47°35' W 122°21'0 0.0
2018-Jan-11 20:30N 47°35' W 122°21'1 2.1
2018-Jan-11 20:00N 47°36' W 122°21'1 1.1
2018-Jan-11 19:30N 47°36' W 122°21'1 1.5
2018-Jan-11 19:00N 47°37' W 122°22'1 1.2
2018-Jan-11 18:30N 47°36' W 122°23'4 8.7
2018-Jan-11 18:00N 47°34' W 122°28'510.3
2018-Jan-11 17:30N 47°29' W 122°30'510.4
2018-Jan-11 17:00N 47°24' W 122°32'5 9.7
2018-Jan-11 16:30N 47°19' W 122°30'4 0.1
2018-Jan-10 15:11N 47°17' W 122°25'1 7.4
2018-Jan-10 15:00N 47°16' W 122°24'1 1.4
2018-Jan-10 14:31N 47°16' W 122°23'2 3.0
2018-Jan-10 14:00N 47°17' W 122°25'2 3.6
2018-Jan-10 13:31N 47°18' W 122°27'2 4.2
2018-Jan-10 13:00N 47°17' W 122°25'1 0.1
2018-Jan-09 23:59N 47°17' W 122°25'2 4.4
2018-Jan-09 23:30N 47°16' W 122°23'1 1.1
2018-Jan-09 23:00N 47°16' W 122°24'2 3.8
2018-Jan-09 22:30N 47°17' W 122°26'0 0.6
2018-Jan-09 22:00N 47°18' W 122°26'  

Dump ship's entire track history